sensor_id;sensor_type;location;lat;lon;timestamp;pressure;altitude;pressure_sealevel;temperature;humidity
57442;BME280;43284;47.042;15.498;2023-03-15T00:00:43;95973.50;;;8.46;36.35
57442;BME280;43284;47.042;15.498;2023-03-15T00:03:09;95979.34;;;8.35;38.05
57442;BME280;43284;47.042;15.498;2023-03-15T00:05:35;95985.72;;;8.30;38.59
57442;BME280;43284;47.042;15.498;2023-03-15T00:08:01;95976.59;;;8.22;37.94
57442;BME280;43284;47.042;15.498;2023-03-15T00:10:28;95977.31;;;8.55;34.86
57442;BME280;43284;47.042;15.498;2023-03-15T00:12:54;95976.22;;;8.59;35.23
57442;BME280;43284;47.042;15.498;2023-03-15T00:15:19;95975.66;;;8.54;36.19
57442;BME280;43284;47.042;15.498;2023-03-15T00:17:45;95972.59;;;8.47;35.89
57442;BME280;43284;47.042;15.498;2023-03-15T00:20:12;95981.81;;;8.37;36.72
57442;BME280;43284;47.042;15.498;2023-03-15T00:22:41;95981.53;;;8.27;36.98
57442;BME280;43284;47.042;15.498;2023-03-15T00:25:07;95987.16;;;8.35;36.12
57442;BME280;43284;47.042;15.498;2023-03-15T00:27:33;95980.78;;;8.25;37.42
57442;BME280;43284;47.042;15.498;2023-03-15T00:29:59;95982.09;;;8.32;35.92
57442;BME280;43284;47.042;15.498;2023-03-15T00:32:25;95983.41;;;8.39;36.00
57442;BME280;43284;47.042;15.498;2023-03-15T00:34:50;95989.41;;;8.41;35.59
57442;BME280;43284;47.042;15.498;2023-03-15T00:37:21;95981.88;;;8.51;35.22
57442;BME280;43284;47.042;15.498;2023-03-15T00:39:50;95984.66;;;8.48;35.33
57442;BME280;43284;47.042;15.498;2023-03-15T00:42:16;95983.81;;;8.48;34.72
57442;BME280;43284;47.042;15.498;2023-03-15T00:44:43;95996.94;;;8.46;35.43
57442;BME280;43284;47.042;15.498;2023-03-15T00:47:13;95991.84;;;8.44;35.02
57442;BME280;43284;47.042;15.498;2023-03-15T00:49:39;95991.22;;;8.55;35.02
57442;BME280;43284;47.042;15.498;2023-03-15T00:52:05;96004.03;;;8.44;35.23
57442;BME280;43284;47.042;15.498;2023-03-15T00:54:32;95999.50;;;8.62;34.80
57442;BME280;43284;47.042;15.498;2023-03-15T00:57:01;96002.44;;;8.56;35.08
57442;BME280;43284;47.042;15.498;2023-03-15T00:59:31;96011.22;;;8.39;37.19
57442;BME280;43284;47.042;15.498;2023-03-15T01:02:03;96003.19;;;8.28;36.83
57442;BME280;43284;47.042;15.498;2023-03-15T01:04:29;96007.22;;;8.33;35.16
57442;BME280;43284;47.042;15.498;2023-03-15T01:06:57;96021.91;;;8.34;36.16
57442;BME280;43284;47.042;15.498;2023-03-15T01:09:23;96016.03;;;8.47;35.12
57442;BME280;43284;47.042;15.498;2023-03-15T01:11:49;96023.50;;;8.37;37.06
57442;BME280;43284;47.042;15.498;2023-03-15T01:14:15;96027.19;;;8.33;36.69
57442;BME280;43284;47.042;15.498;2023-03-15T01:16:40;96024.94;;;8.57;36.07
57442;BME280;43284;47.042;15.498;2023-03-15T01:19:06;96030.16;;;8.57;36.12
57442;BME280;43284;47.042;15.498;2023-03-15T01:21:32;96033.41;;;8.46;36.29
57442;BME280;43284;47.042;15.498;2023-03-15T01:23:57;96043.25;;;8.41;37.31
57442;BME280;43284;47.042;15.498;2023-03-15T01:26:23;96048.28;;;8.44;36.11
57442;BME280;43284;47.042;15.498;2023-03-15T01:28:49;96045.31;;;8.50;36.26
57442;BME280;43284;47.042;15.498;2023-03-15T01:31:20;96049.53;;;8.53;36.27
57442;BME280;43284;47.042;15.498;2023-03-15T01:33:46;96053.25;;;8.63;35.34
57442;BME280;43284;47.042;15.498;2023-03-15T01:36:12;96046.47;;;8.60;35.45
57442;BME280;43284;47.042;15.498;2023-03-15T01:38:38;96037.22;;;8.55;36.22
57442;BME280;43284;47.042;15.498;2023-03-15T01:41:04;96050.03;;;8.43;37.28
57442;BME280;43284;47.042;15.498;2023-03-15T01:43:31;96045.03;;;8.55;36.69
57442;BME280;43284;47.042;15.498;2023-03-15T01:46:25;96030.63;;;8.49;37.11
57442;BME280;43284;47.042;15.498;2023-03-15T01:51:27;96034.34;;;8.45;37.58
57442;BME280;43284;47.042;15.498;2023-03-15T01:54:09;96022.72;;;8.51;37.26
57442;BME280;43284;47.042;15.498;2023-03-15T01:56:41;96035.91;;;8.48;37.98
57442;BME280;43284;47.042;15.498;2023-03-15T01:59:14;96026.91;;;8.53;37.62
57442;BME280;43284;47.042;15.498;2023-03-15T02:01:42;96034.72;;;8.37;38.51
57442;BME280;43284;47.042;15.498;2023-03-15T02:04:14;96035.47;;;8.25;39.29
57442;BME280;43284;47.042;15.498;2023-03-15T02:06:44;96039.91;;;8.23;39.82
57442;BME280;43284;47.042;15.498;2023-03-15T02:09:13;96037.00;;;8.43;38.49
57442;BME280;43284;47.042;15.498;2023-03-15T02:11:41;96027.03;;;8.36;39.16
57442;BME280;43284;47.042;15.498;2023-03-15T02:14:09;96041.41;;;8.27;39.11
57442;BME280;43284;47.042;15.498;2023-03-15T02:16:36;96042.25;;;8.28;39.37
57442;BME280;43284;47.042;15.498;2023-03-15T02:19:05;96035.75;;;8.51;38.65
57442;BME280;43284;47.042;15.498;2023-03-15T02:21:38;96033.97;;;8.51;39.20
57442;BME280;43284;47.042;15.498;2023-03-15T02:24:32;96035.94;;;8.32;40.17
57442;BME280;43284;47.042;15.498;2023-03-15T02:27:02;96032.25;;;8.36;39.68
57442;BME280;43284;47.042;15.498;2023-03-15T02:29:29;96027.66;;;8.39;39.17
57442;BME280;43284;47.042;15.498;2023-03-15T02:31:56;96040.97;;;8.35;40.12
57442;BME280;43284;47.042;15.498;2023-03-15T02:34:22;96040.97;;;8.35;39.66
57442;BME280;43284;47.042;15.498;2023-03-15T02:36:50;96047.66;;;8.24;40.42
57442;BME280;43284;47.042;15.498;2023-03-15T02:39:20;96045.81;;;8.11;40.15
57442;BME280;43284;47.042;15.498;2023-03-15T02:41:57;96050.84;;;8.14;40.55
57442;BME280;43284;47.042;15.498;2023-03-15T02:44:29;96051.63;;;8.16;41.42
57442;BME280;43284;47.042;15.498;2023-03-15T02:47:00;96044.81;;;7.97;41.56
57442;BME280;43284;47.042;15.498;2023-03-15T02:49:31;96057.00;;;7.97;41.92
57442;BME280;43284;47.042;15.498;2023-03-15T02:51:57;96048.66;;;8.06;41.26
57442;BME280;43284;47.042;15.498;2023-03-15T02:54:23;96048.53;;;8.09;40.80
57442;BME280;43284;47.042;15.498;2023-03-15T02:56:49;96055.38;;;8.10;40.69
57442;BME280;43284;47.042;15.498;2023-03-15T02:59:15;96059.56;;;8.13;40.97
57442;BME280;43284;47.042;15.498;2023-03-15T03:01:41;96063.75;;;8.15;40.99
57442;BME280;43284;47.042;15.498;2023-03-15T03:04:10;96070.69;;;8.00;41.84
57442;BME280;43284;47.042;15.498;2023-03-15T03:06:36;96067.50;;;8.11;41.33
57442;BME280;43284;47.042;15.498;2023-03-15T03:09:02;96072.81;;;8.24;40.91
57442;BME280;43284;47.042;15.498;2023-03-15T03:11:28;96084.03;;;8.10;41.66
57442;BME280;43284;47.042;15.498;2023-03-15T03:13:54;96079.00;;;8.07;41.10
57442;BME280;43284;47.042;15.498;2023-03-15T03:16:20;96085.03;;;8.08;41.19
57442;BME280;43284;47.042;15.498;2023-03-15T03:18:47;96086.53;;;8.12;40.92
57442;BME280;43284;47.042;15.498;2023-03-15T03:21:13;96075.94;;;8.15;40.73
57442;BME280;43284;47.042;15.498;2023-03-15T03:23:39;96084.19;;;8.07;41.62
57442;BME280;43284;47.042;15.498;2023-03-15T03:26:13;96091.03;;;8.24;40.85
57442;BME280;43284;47.042;15.498;2023-03-15T03:28:46;96092.88;;;8.22;40.69
57442;BME280;43284;47.042;15.498;2023-03-15T03:31:20;96098.00;;;8.23;40.06
57442;BME280;43284;47.042;15.498;2023-03-15T03:33:46;96093.41;;;8.13;41.26
57442;BME280;43284;47.042;15.498;2023-03-15T03:36:12;96109.63;;;8.02;41.54
57442;BME280;43284;47.042;15.498;2023-03-15T03:38:40;96103.19;;;8.09;41.28
57442;BME280;43284;47.042;15.498;2023-03-15T03:41:08;96106.09;;;8.19;40.70
57442;BME280;43284;47.042;15.498;2023-03-15T03:43:34;96110.72;;;8.14;40.98
57442;BME280;43284;47.042;15.498;2023-03-15T03:45:59;96122.81;;;7.99;41.14
57442;BME280;43284;47.042;15.498;2023-03-15T03:48:25;96125.50;;;7.81;42.41
57442;BME280;43284;47.042;15.498;2023-03-15T03:50:51;96133.56;;;7.93;41.28
57442;BME280;43284;47.042;15.498;2023-03-15T03:53:19;96137.09;;;7.92;41.33
57442;BME280;43284;47.042;15.498;2023-03-15T03:55:45;96137.75;;;7.95;40.85
57442;BME280;43284;47.042;15.498;2023-03-15T03:58:11;96137.56;;;7.82;41.06
57442;BME280;43284;47.042;15.498;2023-03-15T04:00:37;96136.91;;;7.79;41.66
57442;BME280;43284;47.042;15.498;2023-03-15T04:03:03;96147.66;;;7.89;41.18
57442;BME280;43284;47.042;15.498;2023-03-15T04:05:29;96152.41;;;7.80;41.78
57442;BME280;43284;47.042;15.498;2023-03-15T04:07:55;96147.41;;;7.77;41.47
57442;BME280;43284;47.042;15.498;2023-03-15T04:10:20;96138.50;;;7.97;40.39
57442;BME280;43284;47.042;15.498;2023-03-15T04:12:55;96146.91;;;8.02;40.04
57442;BME280;43284;47.042;15.498;2023-03-15T04:15:22;96146.06;;;7.86;41.27
57442;BME280;43284;47.042;15.498;2023-03-15T04:17:49;96145.06;;;7.89;40.02
57442;BME280;43284;47.042;15.498;2023-03-15T04:20:24;96154.56;;;7.90;40.61
57442;BME280;43284;47.042;15.498;2023-03-15T04:22:51;96149.59;;;8.01;40.08
57442;BME280;43284;47.042;15.498;2023-03-15T04:25:18;96159.31;;;7.97;39.64
57442;BME280;43284;47.042;15.498;2023-03-15T04:27:44;96159.25;;;7.99;40.06
57442;BME280;43284;47.042;15.498;2023-03-15T04:30:11;96164.53;;;7.97;39.39
57442;BME280;43284;47.042;15.498;2023-03-15T04:32:37;96153.03;;;8.01;39.18
57442;BME280;43284;47.042;15.498;2023-03-15T04:35:03;96159.06;;;7.86;40.29
57442;BME280;43284;47.042;15.498;2023-03-15T04:37:30;96164.78;;;7.77;40.36
57442;BME280;43284;47.042;15.498;2023-03-15T04:39:58;96158.31;;;7.68;40.98
57442;BME280;43284;47.042;15.498;2023-03-15T04:42:24;96165.28;;;7.68;41.08
57442;BME280;43284;47.042;15.498;2023-03-15T04:44:50;96171.63;;;7.62;41.34
57442;BME280;43284;47.042;15.498;2023-03-15T04:47:16;96166.53;;;7.76;40.60
57442;BME280;43284;47.042;15.498;2023-03-15T04:49:42;96163.25;;;7.73;40.58
57442;BME280;43284;47.042;15.498;2023-03-15T04:52:08;96167.78;;;7.69;40.67
57442;BME280;43284;47.042;15.498;2023-03-15T04:54:33;96170.63;;;7.64;40.52
57442;BME280;43284;47.042;15.498;2023-03-15T04:56:59;96169.78;;;7.64;40.65
57442;BME280;43284;47.042;15.498;2023-03-15T04:59:25;96180.50;;;7.58;41.22
57442;BME280;43284;47.042;15.498;2023-03-15T05:01:50;96175.16;;;7.61;40.57
57442;BME280;43284;47.042;15.498;2023-03-15T05:04:16;96176.38;;;7.54;41.87
57442;BME280;43284;47.042;15.498;2023-03-15T05:06:42;96178.56;;;7.46;42.42
57442;BME280;43284;47.042;15.498;2023-03-15T05:09:07;96181.47;;;7.39;43.01
57442;BME280;43284;47.042;15.498;2023-03-15T05:11:33;96182.78;;;7.31;43.47
57442;BME280;43284;47.042;15.498;2023-03-15T05:13:59;96188.28;;;7.25;44.26
57442;BME280;43284;47.042;15.498;2023-03-15T05:16:24;96188.59;;;7.18;46.17
57442;BME280;43284;47.042;15.498;2023-03-15T05:18:51;96192.44;;;7.11;46.44
57442;BME280;43284;47.042;15.498;2023-03-15T05:21:18;96195.28;;;7.07;46.99
57442;BME280;43284;47.042;15.498;2023-03-15T05:23:43;96200.69;;;7.02;45.78
57442;BME280;43284;47.042;15.498;2023-03-15T05:26:09;96198.47;;;6.94;48.32
57442;BME280;43284;47.042;15.498;2023-03-15T05:28:35;96204.13;;;6.85;48.20
57442;BME280;43284;47.042;15.498;2023-03-15T05:31:01;96207.78;;;6.81;47.92
57442;BME280;43284;47.042;15.498;2023-03-15T05:33:27;96208.56;;;6.83;45.86
57442;BME280;43284;47.042;15.498;2023-03-15T05:35:52;96210.56;;;6.78;47.55
57442;BME280;43284;47.042;15.498;2023-03-15T05:38:20;96216.50;;;6.80;47.02
57442;BME280;43284;47.042;15.498;2023-03-15T05:40:51;96223.44;;;6.79;48.31
57442;BME280;43284;47.042;15.498;2023-03-15T05:43:17;96225.38;;;6.76;48.02
57442;BME280;43284;47.042;15.498;2023-03-15T05:45:43;96232.09;;;6.97;44.42
57442;BME280;43284;47.042;15.498;2023-03-15T05:48:11;96236.38;;;6.98;45.26
57442;BME280;43284;47.042;15.498;2023-03-15T05:50:39;96234.16;;;7.08;43.45
57442;BME280;43284;47.042;15.498;2023-03-15T05:53:05;96247.31;;;7.22;42.72
57442;BME280;43284;47.042;15.498;2023-03-15T05:55:31;96261.31;;;7.37;42.83
57442;BME280;43284;47.042;15.498;2023-03-15T05:57:57;96257.41;;;7.29;42.64
57442;BME280;43284;47.042;15.498;2023-03-15T06:00:22;96260.84;;;7.29;43.17
57442;BME280;43284;47.042;15.498;2023-03-15T06:02:49;96264.81;;;7.54;42.23
57442;BME280;43284;47.042;15.498;2023-03-15T06:05:15;96268.41;;;7.51;42.75
57442;BME280;43284;47.042;15.498;2023-03-15T06:07:40;96271.25;;;7.47;43.19
57442;BME280;43284;47.042;15.498;2023-03-15T06:10:06;96280.50;;;7.52;42.46
57442;BME280;43284;47.042;15.498;2023-03-15T06:12:32;96286.53;;;7.53;42.65
57442;BME280;43284;47.042;15.498;2023-03-15T06:14:58;96295.78;;;7.58;42.20
57442;BME280;43284;47.042;15.498;2023-03-15T06:17:23;96300.72;;;7.63;42.80
57442;BME280;43284;47.042;15.498;2023-03-15T06:19:49;96319.19;;;7.58;43.19
57442;BME280;43284;47.042;15.498;2023-03-15T06:22:15;96314.91;;;7.57;43.08
57442;BME280;43284;47.042;15.498;2023-03-15T06:24:44;96314.22;;;7.54;43.22
57442;BME280;43284;47.042;15.498;2023-03-15T06:27:10;96313.44;;;7.69;42.87
57442;BME280;43284;47.042;15.498;2023-03-15T06:29:35;96321.88;;;7.57;42.91
57442;BME280;43284;47.042;15.498;2023-03-15T06:32:02;96325.47;;;7.54;43.68
57442;BME280;43284;47.042;15.498;2023-03-15T06:34:27;96333.94;;;7.58;43.16
57442;BME280;43284;47.042;15.498;2023-03-15T06:36:53;96345.28;;;7.57;43.86
57442;BME280;43284;47.042;15.498;2023-03-15T06:39:20;96330.34;;;7.60;43.44
57442;BME280;43284;47.042;15.498;2023-03-15T06:41:50;96335.53;;;7.60;44.35
57442;BME280;43284;47.042;15.498;2023-03-15T06:44:18;96342.03;;;7.52;43.83
57442;BME280;43284;47.042;15.498;2023-03-15T06:46:45;96349.25;;;7.64;43.88
57442;BME280;43284;47.042;15.498;2023-03-15T06:49:10;96350.47;;;7.57;43.92
57442;BME280;43284;47.042;15.498;2023-03-15T06:51:36;96356.97;;;7.48;44.59
57442;BME280;43284;47.042;15.498;2023-03-15T06:54:02;96360.66;;;7.61;44.08
57442;BME280;43284;47.042;15.498;2023-03-15T06:56:28;96363.31;;;7.60;44.74
57442;BME280;43284;47.042;15.498;2023-03-15T06:58:54;96361.78;;;7.56;44.11
57442;BME280;43284;47.042;15.498;2023-03-15T07:01:20;96373.03;;;7.56;44.48
57442;BME280;43284;47.042;15.498;2023-03-15T07:03:45;96381.06;;;7.52;45.45
57442;BME280;43284;47.042;15.498;2023-03-15T07:06:11;96380.63;;;7.43;44.62
57442;BME280;43284;47.042;15.498;2023-03-15T07:08:36;96377.16;;;7.60;44.21
57442;BME280;43284;47.042;15.498;2023-03-15T07:11:02;96379.75;;;7.60;44.91
57442;BME280;43284;47.042;15.498;2023-03-15T07:13:28;96385.59;;;7.66;44.03
57442;BME280;43284;47.042;15.498;2023-03-15T07:15:55;96391.94;;;7.60;44.88
57442;BME280;43284;47.042;15.498;2023-03-15T07:18:21;96391.78;;;7.63;45.66
57442;BME280;43284;47.042;15.498;2023-03-15T07:20:55;96401.44;;;7.61;46.09
57442;BME280;43284;47.042;15.498;2023-03-15T07:23:20;96414.44;;;7.61;45.62
57442;BME280;43284;47.042;15.498;2023-03-15T07:25:46;96408.31;;;7.62;45.54
57442;BME280;43284;47.042;15.498;2023-03-15T07:28:13;96413.28;;;7.67;45.71
57442;BME280;43284;47.042;15.498;2023-03-15T07:30:39;96413.88;;;7.72;44.38
57442;BME280;43284;47.042;15.498;2023-03-15T07:33:04;96425.16;;;7.72;44.65
57442;BME280;43284;47.042;15.498;2023-03-15T07:35:30;96428.81;;;7.68;44.70
57442;BME280;43284;47.042;15.498;2023-03-15T07:37:56;96436.41;;;7.73;45.47
57442;BME280;43284;47.042;15.498;2023-03-15T07:40:21;96445.81;;;7.75;46.31
57442;BME280;43284;47.042;15.498;2023-03-15T07:42:47;96451.41;;;7.68;45.50
57442;BME280;43284;47.042;15.498;2023-03-15T07:45:13;96449.84;;;7.63;46.24
57442;BME280;43284;47.042;15.498;2023-03-15T07:47:39;96450.47;;;7.69;45.53
57442;BME280;43284;47.042;15.498;2023-03-15T07:50:05;96457.13;;;7.57;45.38
57442;BME280;43284;47.042;15.498;2023-03-15T07:52:32;96454.34;;;7.60;45.37
57442;BME280;43284;47.042;15.498;2023-03-15T07:54:58;96456.34;;;7.55;46.00
57442;BME280;43284;47.042;15.498;2023-03-15T07:57:23;96459.97;;;7.70;46.02
57442;BME280;43284;47.042;15.498;2023-03-15T07:59:49;96462.75;;;7.65;46.05
57442;BME280;43284;47.042;15.498;2023-03-15T08:02:16;96462.16;;;7.60;47.04
57442;BME280;43284;47.042;15.498;2023-03-15T08:04:42;96473.09;;;7.67;46.59
57442;BME280;43284;47.042;15.498;2023-03-15T08:07:09;96470.38;;;7.70;46.78
57442;BME280;43284;47.042;15.498;2023-03-15T08:09:35;96476.78;;;7.80;46.52
57442;BME280;43284;47.042;15.498;2023-03-15T08:12:01;96475.56;;;7.70;45.73
57442;BME280;43284;47.042;15.498;2023-03-15T08:14:27;96481.31;;;7.76;45.82
57442;BME280;43284;47.042;15.498;2023-03-15T08:16:53;96484.84;;;7.93;46.55
57442;BME280;43284;47.042;15.498;2023-03-15T08:19:19;96482.09;;;7.96;44.57
57442;BME280;43284;47.042;15.498;2023-03-15T08:21:46;96475.06;;;7.98;44.21
57442;BME280;43284;47.042;15.498;2023-03-15T08:24:12;96482.47;;;7.88;44.91
57442;BME280;43284;47.042;15.498;2023-03-15T08:26:38;96487.22;;;7.97;44.72
57442;BME280;43284;47.042;15.498;2023-03-15T08:29:04;96482.25;;;8.10;45.17
57442;BME280;43284;47.042;15.498;2023-03-15T08:31:30;96496.50;;;8.20;44.53
57442;BME280;43284;47.042;15.498;2023-03-15T08:33:56;96488.78;;;8.19;45.15
57442;BME280;43284;47.042;15.498;2023-03-15T08:36:22;96498.34;;;8.18;45.32
57442;BME280;43284;47.042;15.498;2023-03-15T08:38:47;96498.91;;;8.42;44.91
57442;BME280;43284;47.042;15.498;2023-03-15T08:41:13;96495.66;;;8.37;43.92
57442;BME280;43284;47.042;15.498;2023-03-15T08:43:39;96502.56;;;8.38;44.27
57442;BME280;43284;47.042;15.498;2023-03-15T08:46:05;96496.97;;;8.46;44.61
57442;BME280;43284;47.042;15.498;2023-03-15T08:48:30;96505.72;;;8.62;45.71
57442;BME280;43284;47.042;15.498;2023-03-15T08:51:01;96499.78;;;8.76;45.60
57442;BME280;43284;47.042;15.498;2023-03-15T08:53:27;96494.81;;;8.72;44.12
57442;BME280;43284;47.042;15.498;2023-03-15T08:55:53;96499.78;;;8.76;43.69
57442;BME280;43284;47.042;15.498;2023-03-15T08:58:19;96501.31;;;8.80;44.05
57442;BME280;43284;47.042;15.498;2023-03-15T09:00:44;96501.31;;;8.80;44.92
57442;BME280;43284;47.042;15.498;2023-03-15T09:03:11;96508.34;;;8.78;43.60
57442;BME280;43284;47.042;15.498;2023-03-15T09:05:37;96513.34;;;8.65;44.21
57442;BME280;43284;47.042;15.498;2023-03-15T09:08:03;96520.22;;;8.51;44.46
57442;BME280;43284;47.042;15.498;2023-03-15T09:10:29;96525.09;;;8.57;44.21
57442;BME280;43284;47.042;15.498;2023-03-15T09:12:54;96517.03;;;8.61;44.65
57442;BME280;43284;47.042;15.498;2023-03-15T09:15:20;96515.66;;;8.54;43.36
57442;BME280;43284;47.042;15.498;2023-03-15T09:17:48;96520.72;;;8.40;43.82
57442;BME280;43284;47.042;15.498;2023-03-15T09:20:14;96524.72;;;8.47;45.11
57442;BME280;43284;47.042;15.498;2023-03-15T09:22:50;96531.03;;;8.24;44.47
57442;BME280;43284;47.042;15.498;2023-03-15T09:25:16;96539.19;;;8.35;44.50
57442;BME280;43284;47.042;15.498;2023-03-15T09:27:42;96535.88;;;8.32;45.38
57442;BME280;43284;47.042;15.498;2023-03-15T09:30:08;96537.16;;;8.42;44.69
57442;BME280;43284;47.042;15.498;2023-03-15T09:32:34;96540.50;;;8.44;43.83
57442;BME280;43284;47.042;15.498;2023-03-15T09:35:04;96537.56;;;8.50;42.11
57442;BME280;43284;47.042;15.498;2023-03-15T09:37:30;96540.94;;;8.52;42.77
57442;BME280;43284;47.042;15.498;2023-03-15T09:39:56;96548.41;;;8.60;42.22
57442;BME280;43284;47.042;15.498;2023-03-15T09:42:27;96537.34;;;8.55;40.92
57442;BME280;43284;47.042;15.498;2023-03-15T09:50:12;96553.31;;;8.66;42.55
57442;BME280;43284;47.042;15.498;2023-03-15T09:52:47;96553.06;;;8.71;42.17
57442;BME280;43284;47.042;15.498;2023-03-15T09:55:23;96569.53;;;8.71;41.33
57442;BME280;43284;47.042;15.498;2023-03-15T10:00:22;96583.16;;;8.59;41.67
57442;BME280;43284;47.042;15.498;2023-03-15T10:02:59;96581.31;;;8.61;41.67
57442;BME280;43284;47.042;15.498;2023-03-15T10:05:48;96599.34;;;8.65;41.98
57442;BME280;43284;47.042;15.498;2023-03-15T10:08:17;96599.66;;;8.59;42.23
57442;BME280;43284;47.042;15.498;2023-03-15T10:10:53;96610.91;;;8.60;42.77
57442;BME280;43284;47.042;15.498;2023-03-15T10:16:52;96645.22;;;7.95;50.63
57442;BME280;43284;47.042;15.498;2023-03-15T10:24:52;96695.19;;;6.62;61.00
57442;BME280;43284;47.042;15.498;2023-03-15T10:27:23;96687.69;;;6.32;64.57
57442;BME280;43284;47.042;15.498;2023-03-15T10:29:54;96688.34;;;6.38;64.00
57442;BME280;43284;47.042;15.498;2023-03-15T10:32:24;96689.97;;;6.19;65.23
57442;BME280;43284;47.042;15.498;2023-03-15T10:34:54;96690.28;;;6.10;66.55
57442;BME280;43284;47.042;15.498;2023-03-15T10:37:23;96701.63;;;6.07;67.04
57442;BME280;43284;47.042;15.498;2023-03-15T10:39:53;96709.63;;;6.25;68.80
57442;BME280;43284;47.042;15.498;2023-03-15T10:42:38;96706.63;;;6.35;65.04
57442;BME280;43284;47.042;15.498;2023-03-15T10:45:17;96707.34;;;6.39;64.32
57442;BME280;43284;47.042;15.498;2023-03-15T10:47:44;96709.63;;;6.47;66.53
57442;BME280;43284;47.042;15.498;2023-03-15T10:50:31;96710.63;;;6.65;64.69
57442;BME280;43284;47.042;15.498;2023-03-15T10:53:08;96701.63;;;6.73;63.67
57442;BME280;43284;47.042;15.498;2023-03-15T10:55:40;96704.66;;;6.85;56.61
57442;BME280;43284;47.042;15.498;2023-03-15T10:58:18;96702.06;;;7.05;55.15
57442;BME280;43284;47.042;15.498;2023-03-15T11:00:50;96699.47;;;7.26;52.23
57442;BME280;43284;47.042;15.498;2023-03-15T11:03:20;96701.94;;;7.29;50.22
57442;BME280;43284;47.042;15.498;2023-03-15T11:05:51;96691.06;;;7.19;51.82
57442;BME280;43284;47.042;15.498;2023-03-15T11:08:38;96677.88;;;7.44;49.38
57442;BME280;43284;47.042;15.498;2023-03-15T11:11:05;96686.97;;;7.34;49.27
57442;BME280;43284;47.042;15.498;2023-03-15T11:13:34;96690.69;;;7.49;49.07
57442;BME280;43284;47.042;15.498;2023-03-15T11:18:47;96690.16;;;7.61;45.87
57442;BME280;43284;47.042;15.498;2023-03-15T11:21:15;96678.13;;;7.77;47.30
57442;BME280;43284;47.042;15.498;2023-03-15T11:23:45;96680.19;;;7.90;42.87
57442;BME280;43284;47.042;15.498;2023-03-15T11:26:23;96678.97;;;8.16;43.27
57442;BME280;43284;47.042;15.498;2023-03-15T11:28:52;96678.88;;;8.36;44.64
57442;BME280;43284;47.042;15.498;2023-03-15T11:31:20;96684.38;;;8.49;42.73
57442;BME280;43284;47.042;15.498;2023-03-15T11:33:57;96682.94;;;8.61;39.72
57442;BME280;43284;47.042;15.498;2023-03-15T11:36:31;96685.53;;;8.61;41.32
57442;BME280;43284;47.042;15.498;2023-03-15T11:38:59;96697.16;;;8.73;40.27
57442;BME280;43284;47.042;15.498;2023-03-15T11:44:24;96683.78;;;8.61;37.97
57442;BME280;43284;47.042;15.498;2023-03-15T11:47:00;96692.69;;;8.57;37.74
57442;BME280;43284;47.042;15.498;2023-03-15T11:49:35;96705.19;;;8.30;36.23
57442;BME280;43284;47.042;15.498;2023-03-15T11:52:02;96705.22;;;8.11;36.02
57442;BME280;43284;47.042;15.498;2023-03-15T11:54:29;96703.09;;;8.19;37.60
57442;BME280;43284;47.042;15.498;2023-03-15T11:57:01;96716.19;;;7.99;35.47
57442;BME280;43284;47.042;15.498;2023-03-15T11:59:36;96707.41;;;8.01;34.46
57442;BME280;43284;47.042;15.498;2023-03-15T12:07:02;96709.97;;;8.58;34.05
57442;BME280;43284;47.042;15.498;2023-03-15T12:15:05;96705.63;;;8.40;32.46
57442;BME280;43284;47.042;15.498;2023-03-15T12:17:53;96705.16;;;8.51;33.47
57442;BME280;43284;47.042;15.498;2023-03-15T12:20:31;96702.88;;;8.62;33.74
57442;BME280;43284;47.042;15.498;2023-03-15T12:23:30;96698.69;;;9.12;34.22
57442;BME280;43284;47.042;15.498;2023-03-15T12:26:09;96699.78;;;9.25;31.88
57442;BME280;43284;47.042;15.498;2023-03-15T12:31:22;96693.38;;;9.31;32.73
57442;BME280;43284;47.042;15.498;2023-03-15T12:33:51;96689.88;;;9.32;31.28
57442;BME280;43284;47.042;15.498;2023-03-15T12:36:38;96707.66;;;9.23;30.77
57442;BME280;43284;47.042;15.498;2023-03-15T12:41:42;96687.16;;;9.33;31.24
57442;BME280;43284;47.042;15.498;2023-03-15T12:51:44;96711.66;;;9.13;29.87
57442;BME280;43284;47.042;15.498;2023-03-15T12:54:18;96711.03;;;9.08;31.32
57442;BME280;43284;47.042;15.498;2023-03-15T12:56:59;96711.19;;;8.51;29.79
57442;BME280;43284;47.042;15.498;2023-03-15T12:59:47;96722.72;;;8.64;30.11
57442;BME280;43284;47.042;15.498;2023-03-15T13:05:08;96721.72;;;8.67;30.00
57442;BME280;43284;47.042;15.498;2023-03-15T13:11:11;96728.63;;;8.68;29.97
57442;BME280;43284;47.042;15.498;2023-03-15T13:19:38;96740.44;;;7.99;30.32
57442;BME280;43284;47.042;15.498;2023-03-15T13:22:29;96743.28;;;8.14;30.83
57442;BME280;43284;47.042;15.498;2023-03-15T13:25:16;96747.44;;;8.18;28.93
57442;BME280;43284;47.042;15.498;2023-03-15T13:30:31;96733.31;;;8.42;31.52
57442;BME280;43284;47.042;15.498;2023-03-15T13:33:25;96736.63;;;8.82;29.28
57442;BME280;43284;47.042;15.498;2023-03-15T13:36:18;96726.06;;;8.85;27.65
57442;BME280;43284;47.042;15.498;2023-03-15T13:38:53;96741.28;;;8.76;27.95
57442;BME280;43284;47.042;15.498;2023-03-15T13:41:21;96733.25;;;8.98;27.39
57442;BME280;43284;47.042;15.498;2023-03-15T13:43:48;96733.97;;;9.36;29.65
57442;BME280;43284;47.042;15.498;2023-03-15T13:46:18;96735.88;;;9.33;27.95
57442;BME280;43284;47.042;15.498;2023-03-15T13:48:46;96740.09;;;9.53;27.21
57442;BME280;43284;47.042;15.498;2023-03-15T13:53:48;96736.66;;;9.17;26.31
57442;BME280;43284;47.042;15.498;2023-03-15T13:56:21;96741.03;;;9.52;27.59
57442;BME280;43284;47.042;15.498;2023-03-15T13:58:51;96745.47;;;9.49;27.14
57442;BME280;43284;47.042;15.498;2023-03-15T14:01:17;96750.78;;;9.81;26.84
57442;BME280;43284;47.042;15.498;2023-03-15T14:03:48;96746.59;;;9.61;27.17
57442;BME280;43284;47.042;15.498;2023-03-15T14:06:24;96758.88;;;9.24;28.19
57442;BME280;43284;47.042;15.498;2023-03-15T14:08:59;96776.00;;;9.13;27.47
57442;BME280;43284;47.042;15.498;2023-03-15T14:13:54;96774.88;;;8.82;27.78
57442;BME280;43284;47.042;15.498;2023-03-15T14:16:44;96773.56;;;8.73;28.58